createdAt,value
2022-10-30T00:01:08.412Z,97049.63
2022-10-30T00:03:36.244Z,96962.88
2022-10-30T00:06:07.245Z,97026.66
2022-10-30T00:08:35.517Z,97032.97
2022-10-30T00:11:08.339Z,97037.19
2022-10-30T00:13:36.262Z,97044.06
2022-10-30T00:16:06.427Z,97015.88
2022-10-30T00:18:36.225Z,97007.81
2022-10-30T00:21:10.251Z,97048.41
2022-10-30T00:23:38.199Z,97026.75
2022-10-30T00:26:07.112Z,97035.84
2022-10-30T00:28:35.716Z,97051.00
2022-10-30T00:31:06.078Z,97051.38
2022-10-30T00:33:34.174Z,97029.66
2022-10-30T00:36:02.238Z,97052.13
2022-10-30T00:38:31.442Z,97041.00
2022-10-30T00:40:59.241Z,97030.28
2022-10-30T00:43:32.565Z,97041.00
2022-10-30T00:46:07.935Z,97021.19
2022-10-30T00:48:36.491Z,97022.50
2022-10-30T00:51:09.686Z,97030.38
2022-10-30T00:53:40.558Z,97038.13
2022-10-30T00:56:11.639Z,97033.41
2022-10-30T00:58:43.067Z,97007.13
2022-10-30T01:01:16.928Z,97011.97
2022-10-30T01:03:45.137Z,96993.66
2022-10-30T01:06:17.032Z,97024.13
2022-10-30T01:08:47.338Z,96994.31
2022-10-30T01:11:15.170Z,96994.25
2022-10-30T01:13:45.554Z,96997.81
2022-10-30T01:16:32.670Z,96956.06
2022-10-30T01:19:07.943Z,97003.06
2022-10-30T01:21:46.117Z,97001.91
2022-10-30T01:24:32.268Z,97003.31
2022-10-30T01:27:15.104Z,97010.16
2022-10-30T01:29:56.503Z,97008.09
2022-10-30T01:32:40.717Z,97010.53
2022-10-30T01:35:16.176Z,96997.47
2022-10-30T01:37:51.501Z,97007.50
2022-10-30T01:40:21.269Z,96994.94
2022-10-30T01:42:51.803Z,97003.13
2022-10-30T01:45:26.150Z,96985.34
2022-10-30T01:48:15.230Z,96994.09
2022-10-30T01:50:49.912Z,96997.84
2022-10-30T01:53:32.045Z,96984.19
2022-10-30T01:56:16.229Z,96986.22
2022-10-30T01:58:48.997Z,96985.03
2022-10-30T02:01:17.253Z,96985.47
2022-10-30T02:03:45.696Z,96991.75
2022-10-30T02:06:13.456Z,97001.63
2022-10-30T02:08:41.135Z,96991.94
2022-10-30T02:11:11.384Z,96991.75
2022-10-30T02:13:39.432Z,96990.31
2022-10-30T02:16:08.405Z,96992.38
2022-10-30T02:18:36.086Z,96999.38
2022-10-30T02:21:06.523Z,97000.66
2022-10-30T02:23:34.271Z,96995.25
2022-10-30T02:26:01.977Z,96995.44
2022-10-30T02:28:29.673Z,96993.13
2022-10-30T02:30:57.360Z,96970.66
2022-10-30T02:33:25.395Z,96988.00
2022-10-30T02:35:54.605Z,96986.16
2022-10-30T02:38:24.119Z,96989.03
2022-10-30T02:40:51.852Z,96987.00
2022-10-30T02:43:19.519Z,96983.19
2022-10-30T02:45:51.866Z,96986.81
2022-10-30T02:48:19.553Z,96972.97
2022-10-30T02:50:47.210Z,96970.97
2022-10-30T02:53:14.903Z,96975.78
2022-10-30T02:55:43.955Z,96967.44
2022-10-30T02:58:11.679Z,96967.72
2022-10-30T03:00:39.305Z,96977.97
2022-10-30T03:03:06.957Z,96978.41
2022-10-30T03:05:34.681Z,96973.94
2022-10-30T03:08:02.625Z,96973.19
2022-10-30T03:10:31.243Z,96976.88
2022-10-30T03:13:00.995Z,96981.94
2022-10-30T03:15:28.651Z,96968.25
2022-10-30T03:17:56.680Z,96971.97
2022-10-30T03:20:24.578Z,96979.06
2022-10-30T03:22:52.276Z,96978.13
2022-10-30T03:25:23.769Z,96971.16
2022-10-30T03:27:51.829Z,96968.16
2022-10-30T03:30:20.892Z,96967.78
2022-10-30T03:32:48.535Z,96973.75
2022-10-30T03:35:16.264Z,96977.31
2022-10-30T03:37:43.940Z,96980.44
2022-10-30T03:40:12.399Z,96977.47
2022-10-30T03:42:40.929Z,96974.47
2022-10-30T03:45:09.545Z,96983.34
2022-10-30T03:47:40.866Z,96983.91
2022-10-30T03:50:09.083Z,96985.31
2022-10-30T03:52:36.764Z,96981.91
2022-10-30T03:55:04.750Z,96974.06
2022-10-30T03:57:32.440Z,96980.44
2022-10-30T04:00:00.086Z,96978.16
2022-10-30T04:02:27.822Z,96976.50
2022-10-30T04:04:57.202Z,96985.22
2022-10-30T04:07:24.996Z,96982.16
2022-10-30T04:09:52.666Z,96976.88
2022-10-30T04:12:20.366Z,96996.63
2022-10-30T04:14:48.083Z,96982.03
2022-10-30T04:17:15.711Z,96997.47
2022-10-30T04:19:44.223Z,96975.56
2022-10-30T04:22:13.945Z,96992.31
2022-10-30T04:24:41.623Z,96988.97
2022-10-30T04:27:09.304Z,96984.69
2022-10-30T04:29:37.789Z,96982.00
2022-10-30T04:34:39.342Z,96986.91
2022-10-30T04:37:07.495Z,96985.84
2022-10-30T04:39:37.453Z,96975.63
2022-10-30T04:42:07.577Z,96986.53
2022-10-30T04:44:35.218Z,96983.19
2022-10-30T04:47:02.863Z,96985.84
2022-10-30T04:49:30.499Z,96986.09
2022-10-30T04:51:58.153Z,96976.59
2022-10-30T04:54:25.835Z,96980.53
2022-10-30T04:56:54.869Z,96973.78
2022-10-30T04:59:22.589Z,96971.72
2022-10-30T05:01:50.334Z,96975.25
2022-10-30T05:04:18.478Z,96969.25
2022-10-30T05:06:46.197Z,96976.47
2022-10-30T05:09:13.853Z,96961.91
2022-10-30T05:11:41.562Z,96965.63
2022-10-30T05:14:10.647Z,96969.34
2022-10-30T05:16:38.331Z,96963.66
2022-10-30T05:19:06.241Z,96953.00
2022-10-30T05:21:33.934Z,96962.50
2022-10-30T05:24:01.677Z,96962.41
2022-10-30T05:26:29.368Z,96960.34
2022-10-30T05:28:57.050Z,96963.19
2022-10-30T05:31:26.256Z,96951.47
2022-10-30T05:33:54.215Z,96972.53
2022-10-30T05:36:22.293Z,96972.13
2022-10-30T05:38:50.042Z,96976.19
2022-10-30T05:41:17.719Z,96956.50
2022-10-30T05:43:45.476Z,96947.31
2022-10-30T05:46:13.286Z,96960.44
2022-10-30T05:48:42.322Z,96980.31
2022-10-30T05:51:10.066Z,96976.22
2022-10-30T05:53:37.784Z,96973.78
2022-10-30T05:56:06.029Z,96974.66
2022-10-30T05:58:33.767Z,96967.06
2022-10-30T06:01:01.531Z,96974.03
2022-10-30T06:03:29.331Z,96959.75
2022-10-30T06:05:58.416Z,96969.38
2022-10-30T06:08:26.256Z,96978.84
2022-10-30T06:10:55.058Z,96977.84
2022-10-30T06:13:22.769Z,96969.38
2022-10-30T06:15:50.712Z,96969.97
2022-10-30T06:18:18.452Z,96975.03
2022-10-30T06:20:46.311Z,96973.78
2022-10-30T06:23:15.485Z,96978.19
2022-10-30T06:25:43.264Z,96967.16
2022-10-30T06:28:13.572Z,96986.91
2022-10-30T06:30:41.503Z,96977.66
2022-10-30T06:33:10.821Z,96988.66
2022-10-30T06:35:38.703Z,96976.94
2022-10-30T06:38:06.432Z,96981.66
2022-10-30T06:40:35.534Z,96978.50
2022-10-30T06:43:03.474Z,96989.78
2022-10-30T06:45:31.300Z,96989.91
2022-10-30T06:47:59.307Z,96988.97
2022-10-30T06:50:27.253Z,96986.59
2022-10-30T06:52:55.923Z,96989.50
2022-10-30T06:55:23.658Z,96987.78
2022-10-30T06:57:56.707Z,96991.66
2022-10-30T07:00:24.860Z,96979.09
2022-10-30T07:03:00.011Z,96965.69
2022-10-30T07:05:28.624Z,96985.78
2022-10-30T07:07:57.799Z,96986.88
2022-10-30T07:10:25.634Z,96991.34
2022-10-30T07:12:57.546Z,96994.00
2022-10-30T07:15:25.814Z,96995.53
2022-10-30T07:17:55.477Z,96998.66
2022-10-30T07:20:23.286Z,96999.88
2022-10-30T07:22:51.325Z,96997.00
2022-10-30T07:25:19.201Z,96996.03
2022-10-30T07:27:49.024Z,96990.31
2022-10-30T07:30:20.202Z,96996.16
2022-10-30T07:32:48.403Z,96997.00
2022-10-30T07:35:16.214Z,96995.06
2022-10-30T07:37:43.924Z,96992.44
2022-10-30T07:40:13.213Z,97001.34
2022-10-30T07:42:41.041Z,96996.03
2022-10-30T07:47:44.518Z,96997.47
2022-10-30T07:50:12.491Z,97002.53
2022-10-30T07:52:40.259Z,96989.41
2022-10-30T07:55:08.915Z,96988.00
2022-10-30T07:57:37.265Z,97001.47
2022-10-30T08:00:06.442Z,96994.22
2022-10-30T08:02:34.334Z,96995.41
2022-10-30T08:05:04.039Z,96996.41
2022-10-30T08:07:32.146Z,96996.75
2022-10-30T08:09:59.829Z,96995.78
2022-10-30T08:12:28.090Z,96993.72
2022-10-30T08:14:55.802Z,97003.59
2022-10-30T08:17:23.546Z,97001.94
2022-10-30T08:19:51.254Z,97000.41
2022-10-30T08:22:20.308Z,96993.69
2022-10-30T08:24:48.028Z,97007.59
2022-10-30T08:27:16.018Z,97001.41
2022-10-30T08:29:43.854Z,96999.94
2022-10-30T08:32:11.579Z,97007.47
2022-10-30T08:34:40.055Z,96994.97
2022-10-30T08:37:08.790Z,97011.28
2022-10-30T08:39:38.760Z,96999.78
2022-10-30T08:42:06.544Z,97004.97
2022-10-30T08:44:34.832Z,97004.81
2022-10-30T08:47:02.659Z,97000.03
2022-10-30T08:49:30.308Z,96997.34
2022-10-30T08:51:57.965Z,97013.03
2022-10-30T08:54:25.645Z,96993.06
2022-10-30T08:56:54.658Z,97007.31
2022-10-30T08:59:22.328Z,97010.81
2022-10-30T09:01:51.139Z,97010.13
2022-10-30T09:04:19.868Z,96997.59
2022-10-30T09:06:47.580Z,97001.28
2022-10-30T09:09:15.558Z,96999.13
2022-10-30T09:11:43.205Z,97003.78
2022-10-30T09:14:12.550Z,96996.09
2022-10-30T09:16:40.261Z,96992.00
2022-10-30T09:19:07.955Z,96995.59
2022-10-30T09:21:35.612Z,96995.59
2022-10-30T09:24:03.282Z,96993.06
2022-10-30T09:26:31.007Z,96998.19
2022-10-30T09:28:58.851Z,96996.91
2022-10-30T09:31:27.905Z,96998.09
2022-10-30T09:33:55.575Z,96991.84
2022-10-30T09:36:23.277Z,96972.41
2022-10-30T09:38:50.921Z,96990.75
2022-10-30T09:41:33.411Z,96989.78
2022-10-30T09:44:16.215Z,96988.25
2022-10-30T09:47:01.329Z,96989.78
2022-10-30T09:49:45.291Z,96990.53
2022-10-30T09:52:21.927Z,96989.81
2022-10-30T09:55:06.612Z,96992.09
2022-10-30T09:57:44.006Z,96988.59
2022-10-30T10:00:13.827Z,96999.47
2022-10-30T10:03:05.147Z,96995.34
2022-10-30T10:05:44.137Z,96995.53
2022-10-30T10:08:16.911Z,96992.69
2022-10-30T10:10:46.693Z,96978.09
2022-10-30T10:13:28.856Z,97000.22
2022-10-30T10:16:00.047Z,96996.41
2022-10-30T10:18:36.950Z,96993.91
2022-10-30T10:21:11.886Z,96972.09
2022-10-30T10:23:47.836Z,96992.81
2022-10-30T10:26:27.734Z,96988.22
2022-10-30T10:29:10.109Z,96987.69
2022-10-30T10:31:44.549Z,96980.44
2022-10-30T10:34:38.107Z,96983.94
2022-10-30T10:37:16.084Z,96979.59
2022-10-30T10:40:01.357Z,96977.38
2022-10-30T10:42:40.994Z,96970.41
2022-10-30T10:45:20.787Z,96964.34
2022-10-30T10:50:53.768Z,96937.78
2022-10-30T10:53:25.849Z,96955.31
2022-10-30T10:55:58.371Z,96942.16
2022-10-30T10:58:32.501Z,96948.53
2022-10-30T11:01:01.148Z,96940.44
2022-10-30T11:03:38.211Z,96934.56
2022-10-30T11:06:21.135Z,96953.09
2022-10-30T11:08:50.312Z,96948.78
2022-10-30T11:11:18.054Z,96950.63
2022-10-30T11:13:45.902Z,96937.69
2022-10-30T11:16:30.107Z,96942.13
2022-10-30T11:19:01.469Z,96916.75
2022-10-30T11:21:34.493Z,96921.31
2022-10-30T11:24:02.365Z,96936.56
2022-10-30T11:26:34.981Z,96932.31
2022-10-30T11:29:12.731Z,96925.81
2022-10-30T11:31:42.066Z,96929.91
2022-10-30T11:34:24.773Z,96925.00
2022-10-30T11:36:55.168Z,96922.06
2022-10-30T11:39:24.683Z,96921.75
2022-10-30T11:41:59.243Z,96922.88
2022-10-30T11:44:31.853Z,96914.81
2022-10-30T11:47:00.192Z,96913.41
2022-10-30T11:49:34.858Z,96919.13
2022-10-30T11:52:05.302Z,96913.41
2022-10-30T11:54:37.606Z,96906.91
2022-10-30T11:57:06.113Z,96913.16
2022-10-30T11:59:33.961Z,96899.59
2022-10-30T12:02:04.647Z,96912.00
2022-10-30T12:04:33.146Z,96901.66
2022-10-30T12:07:20.584Z,96903.88
2022-10-30T12:09:49.029Z,96903.53
2022-10-30T12:12:29.475Z,96901.69
2022-10-30T12:14:57.235Z,96902.22
2022-10-30T12:17:24.948Z,96901.09
2022-10-30T12:19:57.372Z,96902.78
2022-10-30T12:22:34.337Z,96899.00
2022-10-30T12:25:05.863Z,96906.13
2022-10-30T12:27:38.255Z,96889.72
2022-10-30T12:30:15.995Z,96879.75
2022-10-30T12:32:50.507Z,96881.00
2022-10-30T12:35:37.096Z,96880.44
2022-10-30T12:38:08.616Z,96884.56
2022-10-30T12:40:41.706Z,96886.41
2022-10-30T12:43:17.187Z,96885.38
2022-10-30T12:45:46.846Z,96882.66
2022-10-30T12:48:19.303Z,96878.91
2022-10-30T12:50:57.022Z,96875.16
2022-10-30T12:53:33.303Z,96875.09
2022-10-30T12:56:06.391Z,96870.75
2022-10-30T12:58:40.895Z,96866.41
2022-10-30T13:01:18.660Z,96869.16
2022-10-30T13:03:52.228Z,96869.66
2022-10-30T13:06:24.793Z,96866.44
2022-10-30T13:09:10.644Z,96863.16
2022-10-30T13:11:46.376Z,96855.00
2022-10-30T13:14:18.429Z,96855.09
2022-10-30T13:16:46.265Z,96850.16
2022-10-30T13:19:14.885Z,96843.66
2022-10-30T13:21:51.270Z,96853.47
2022-10-30T13:24:26.597Z,96847.47
2022-10-30T13:26:58.863Z,96840.03
2022-10-30T13:29:32.739Z,96851.34
2022-10-30T13:32:19.361Z,96825.38
2022-10-30T13:34:53.479Z,96843.78
2022-10-30T13:37:27.751Z,96849.44
2022-10-30T13:40:06.864Z,96850.22
2022-10-30T13:42:50.074Z,96845.94
2022-10-30T13:45:57.547Z,96848.66
2022-10-30T13:48:37.673Z,96843.56
2022-10-30T13:51:26.401Z,96847.91
2022-10-30T13:54:04.354Z,96848.16
2022-10-30T13:56:34.877Z,96850.34
2022-10-30T13:59:11.098Z,96844.38
2022-10-30T14:01:44.069Z,96852.22
2022-10-30T14:04:18.741Z,96846.53
2022-10-30T14:06:53.308Z,96847.63
2022-10-30T14:09:33.595Z,96848.72
2022-10-30T14:12:41.987Z,96853.03
2022-10-30T14:15:20.067Z,96861.66
2022-10-30T14:18:20.915Z,96851.13
2022-10-30T14:20:50.381Z,96847.03
2022-10-30T14:23:23.275Z,96854.91
2022-10-30T14:26:13.749Z,96850.81
2022-10-30T14:28:44.998Z,96854.06
2022-10-30T14:31:16.681Z,96844.47
2022-10-30T14:33:47.508Z,96844.69
2022-10-30T14:36:18.723Z,96842.91
2022-10-30T14:38:59.506Z,96842.59
2022-10-30T14:41:41.997Z,96844.25
2022-10-30T14:44:38.285Z,96851.66
2022-10-30T14:47:30.534Z,96847.31
2022-10-30T14:50:03.173Z,96857.06
2022-10-30T14:52:37.810Z,96830.00
2022-10-30T14:55:28.125Z,96853.28
2022-10-30T14:58:22.467Z,96840.91
2022-10-30T15:00:53.949Z,96832.56
2022-10-30T15:03:50.248Z,96851.53
2022-10-30T15:06:25.683Z,96855.28
2022-10-30T15:09:08.393Z,96846.81
2022-10-30T15:11:59.088Z,96849.78
2022-10-30T15:17:31.569Z,96853.06
2022-10-30T15:20:02.585Z,96857.28
2022-10-30T15:22:31.448Z,96856.00
2022-10-30T15:24:59.883Z,96853.81
2022-10-30T15:27:28.165Z,96857.50
2022-10-30T15:30:00.544Z,96857.50
2022-10-30T15:32:29.617Z,96851.97
2022-10-30T15:34:59.976Z,96847.50
2022-10-30T15:37:28.962Z,96852.38
2022-10-30T15:40:17.707Z,96854.59
2022-10-30T15:42:46.450Z,96858.56
2022-10-30T15:45:19.275Z,96859.41
2022-10-30T15:47:56.899Z,96855.78
2022-10-30T15:50:24.898Z,96854.59
2022-10-30T15:52:53.982Z,96849.00
2022-10-30T15:55:27.338Z,96861.97
2022-10-30T15:58:03.301Z,96861.63
2022-10-30T16:00:34.497Z,96862.34
2022-10-30T16:03:06.099Z,96865.50
2022-10-30T16:05:34.870Z,96863.22
2022-10-30T16:08:04.094Z,96867.50
2022-10-30T16:10:35.466Z,96865.28
2022-10-30T16:13:04.779Z,96862.78
2022-10-30T16:15:34.895Z,96866.31
2022-10-30T16:18:09.582Z,96863.25
2022-10-30T16:20:37.973Z,96868.06
2022-10-30T16:23:06.598Z,96866.38
2022-10-30T16:25:37.368Z,96868.16
2022-10-30T16:28:05.645Z,96872.66
2022-10-30T16:30:35.019Z,96871.97
2022-10-30T16:33:05.142Z,96873.47
2022-10-30T16:35:32.935Z,96876.75
2022-10-30T16:38:02.593Z,96872.13
2022-10-30T16:40:31.724Z,96860.13
2022-10-30T16:43:01.771Z,96871.97
2022-10-30T16:45:57.688Z,96879.47
2022-10-30T16:48:34.337Z,96879.94
2022-10-30T16:51:03.997Z,96886.13
2022-10-30T16:53:32.377Z,96887.44
2022-10-30T16:56:00.856Z,96889.81
2022-10-30T16:58:31.279Z,96888.31
2022-10-30T17:01:05.426Z,96890.44
2022-10-30T17:03:38.897Z,96885.84
2022-10-30T17:06:25.155Z,96896.50
2022-10-30T17:08:54.209Z,96895.16
2022-10-30T17:11:35.908Z,96906.72
2022-10-30T17:14:07.006Z,96909.63
2022-10-30T17:16:38.278Z,96902.78
2022-10-30T17:19:47.382Z,96900.81
2022-10-30T17:22:19.650Z,96908.88
2022-10-30T17:24:48.533Z,96911.06
2022-10-30T17:27:47.797Z,96910.25
2022-10-30T17:30:37.878Z,96920.41
2022-10-30T17:33:25.374Z,96918.22
2022-10-30T17:38:27.117Z,96924.03
2022-10-30T17:40:54.980Z,96922.88
2022-10-30T17:43:26.168Z,96923.59
2022-10-30T17:45:53.883Z,96917.41
2022-10-30T17:48:23.783Z,96925.47
2022-10-30T17:50:51.481Z,96933.78
2022-10-30T17:53:22.345Z,96930.88
2022-10-30T17:55:56.719Z,96937.31
2022-10-30T17:58:25.022Z,96951.50
2022-10-30T18:00:52.752Z,96952.81
2022-10-30T18:03:20.477Z,96953.47
2022-10-30T18:05:49.350Z,96951.63
2022-10-30T18:08:17.040Z,96954.31
2022-10-30T18:10:46.075Z,96954.78
2022-10-30T18:13:15.044Z,96951.75
2022-10-30T18:15:45.005Z,96959.56
2022-10-30T18:18:12.780Z,96964.72
2022-10-30T18:20:40.562Z,96967.41
2022-10-30T18:23:46.340Z,96966.72
2022-10-30T18:26:08.304Z,96968.78
2022-10-30T18:28:36.017Z,96972.50
2022-10-30T18:31:03.787Z,96971.34
2022-10-30T18:33:31.509Z,96977.66
2022-10-30T18:36:00.060Z,96976.63
2022-10-30T18:38:27.777Z,96969.25
2022-10-30T18:40:55.705Z,96986.31
2022-10-30T18:43:24.749Z,96989.66
2022-10-30T18:45:52.452Z,96982.78
2022-10-30T18:48:20.173Z,96986.50
2022-10-30T18:50:47.932Z,96994.69
2022-10-30T18:53:17.819Z,96995.38
2022-10-30T18:58:13.966Z,97000.03
2022-10-30T19:01:10.006Z,96997.69
2022-10-30T19:03:30.935Z,97006.91
2022-10-30T19:05:58.701Z,97008.06
2022-10-30T19:08:26.536Z,97003.03
2022-10-30T19:10:58.026Z,97009.25
2022-10-30T19:13:25.801Z,96999.34
2022-10-30T19:16:00.505Z,96995.59
2022-10-30T19:18:31.049Z,96991.66
2022-10-30T19:21:04.433Z,96993.72
2022-10-30T19:23:33.681Z,96988.75
2022-10-30T19:26:01.474Z,96991.66
2022-10-30T19:28:30.744Z,96979.38
2022-10-30T19:30:59.995Z,96993.38
2022-10-30T19:33:27.676Z,96987.19
2022-10-30T19:35:56.460Z,96994.38
2022-10-30T19:38:24.528Z,96982.97
2022-10-30T19:40:52.465Z,96987.28
2022-10-30T19:43:20.498Z,96994.84
2022-10-30T19:45:51.342Z,96981.78
2022-10-30T19:48:47.683Z,96989.06
2022-10-30T19:51:12.035Z,96996.53
2022-10-30T19:53:39.986Z,96993.84
2022-10-30T19:56:09.469Z,96993.16
2022-10-30T19:58:37.175Z,96997.47
2022-10-30T20:01:04.929Z,96991.50
2022-10-30T20:03:34.073Z,96995.22
2022-10-30T20:06:01.765Z,97003.66
2022-10-30T20:08:29.493Z,97003.41
2022-10-30T20:10:59.615Z,97005.63
2022-10-30T20:13:28.283Z,97002.25
2022-10-30T20:15:58.207Z,97008.41
2022-10-30T20:18:30.142Z,97000.56
2022-10-30T20:21:01.657Z,97010.28
2022-10-30T20:23:30.241Z,97004.63
2022-10-30T20:26:00.879Z,97010.47
2022-10-30T20:28:30.938Z,97011.19
2022-10-30T20:30:58.790Z,97011.19
2022-10-30T20:33:26.744Z,97012.41
2022-10-30T20:35:55.600Z,97011.19
2022-10-30T20:38:26.793Z,97021.00
2022-10-30T20:40:54.813Z,97016.91
2022-10-30T20:43:29.171Z,97018.66
2022-10-30T20:45:58.242Z,97006.78
2022-10-30T20:48:26.137Z,97017.31
2022-10-30T20:50:54.101Z,97022.50
2022-10-30T20:53:21.798Z,97018.50
2022-10-30T20:55:51.213Z,97014.50
2022-10-30T20:58:19.222Z,97024.09
2022-10-30T21:00:47.177Z,97017.75
2022-10-30T21:03:15.293Z,97034.50
2022-10-30T21:05:45.669Z,97036.13
2022-10-30T21:08:14.877Z,97042.22
2022-10-30T21:10:43.208Z,97043.47
2022-10-30T21:13:12.300Z,97032.31
2022-10-30T21:15:40.913Z,97032.69
2022-10-30T21:18:09.122Z,97031.56
2022-10-30T21:20:37.561Z,97031.34
2022-10-30T21:23:05.569Z,97035.31
2022-10-30T21:25:33.320Z,97027.41
2022-10-30T21:28:01.801Z,97029.22
2022-10-30T21:30:31.316Z,97036.13
2022-10-30T21:33:00.101Z,97019.53
2022-10-30T21:35:28.412Z,97029.16
2022-10-30T21:37:56.112Z,97039.91
2022-10-30T21:40:23.816Z,97035.13
2022-10-30T21:42:51.510Z,97033.97
2022-10-30T21:45:19.435Z,97022.91
2022-10-30T21:47:52.713Z,97029.03
2022-10-30T21:50:20.602Z,97033.56
2022-10-30T21:52:48.415Z,97026.19
2022-10-30T21:55:16.252Z,97023.41
2022-10-30T21:57:44.052Z,97030.78
2022-10-30T22:00:13.119Z,97034.44
2022-10-30T22:02:41.429Z,97029.88
2022-10-30T22:05:10.952Z,97018.94
2022-10-30T22:07:38.765Z,97018.38
2022-10-30T22:10:07.919Z,97022.53
2022-10-30T22:12:35.672Z,97019.78
2022-10-30T22:15:03.513Z,97023.53
2022-10-30T22:17:33.955Z,97022.72
2022-10-30T22:20:03.201Z,97011.34
2022-10-30T22:22:32.540Z,97031.78
2022-10-30T22:25:00.374Z,97031.59
2022-10-30T22:27:28.299Z,97030.19
2022-10-30T22:29:56.150Z,97013.06
2022-10-30T22:32:24.092Z,97027.13
2022-10-30T22:34:51.851Z,97026.47
2022-10-30T22:37:19.633Z,97029.81
2022-10-30T22:39:48.759Z,97033.13
2022-10-30T22:42:16.636Z,97041.53
2022-10-30T22:44:44.359Z,97035.16
2022-10-30T22:47:12.126Z,97029.81
2022-10-30T22:49:39.914Z,97025.34
2022-10-30T22:52:07.648Z,97022.38
2022-10-30T22:54:35.478Z,97018.75
2022-10-30T22:57:04.800Z,97020.41
2022-10-30T22:59:32.575Z,97023.03
2022-10-30T23:02:00.438Z,97021.16
2022-10-30T23:04:28.302Z,97018.09
2022-10-30T23:06:56.003Z,97025.41
2022-10-30T23:09:23.770Z,97025.66
2022-10-30T23:11:51.899Z,97026.03
2022-10-30T23:14:20.999Z,97015.19
2022-10-30T23:16:48.734Z,97029.97
2022-10-30T23:19:16.514Z,97023.88
2022-10-30T23:21:44.458Z,97003.75
2022-10-30T23:24:12.140Z,97009.03
2022-10-30T23:26:39.819Z,97010.34
2022-10-30T23:29:07.543Z,97014.22
2022-10-30T23:31:38.855Z,97022.41
2022-10-30T23:34:09.459Z,97023.72
2022-10-30T23:36:37.418Z,97021.63
2022-10-30T23:39:07.040Z,97017.34
2022-10-30T23:41:35.305Z,97015.25
2022-10-30T23:44:06.025Z,97019.72
2022-10-30T23:46:36.476Z,97007.69
2022-10-30T23:49:05.237Z,97023.06
2022-10-30T23:51:33.246Z,97021.81
2022-10-30T23:54:01.330Z,97018.72
2022-10-30T23:56:30.435Z,97017.91
2022-10-30T23:58:58.348Z,97016.09
